ARG1822 SABE-SAVC
Flight info
| Callsign | ARG1822 |
|---|---|
| Flight time | 2h 2m |
| Altitude | 36000 |
| Route | PTA8 GBE UT694 IREMO UP664 GATUD GATUD2U |
| Aircraft | B738/M-SDE2E3FGHIRWXY/LB1 |
Departure
| Time | 2026-04-14 15:41 |
|---|---|
| Airport | Aeroparque Jorge Newbery (SABE) |
Arrival
| Time | 2026-04-14 17:44 |
|---|---|
| Airport | General Enrique Mosconi International Airport (SAVC) |
| Time | Latitude | Longitude | Altitude | Speed | Heading |
|---|---|---|---|---|---|
| 2026-04-14 15:10 | -34.55798 | -58.41250 | 24 ft | 0 kts | 36° |
| 2026-04-14 15:27 | -34.55803 | -58.41254 | 24 ft | 4 kts | 36° |
| 2026-04-14 15:27 | -34.55822 | -58.41270 | 28 ft | 4 kts | 25° |
| 2026-04-14 15:27 | -34.55846 | -58.41278 | 24 ft | 4 kts | 346° |
| 2026-04-14 15:28 | -34.55867 | -58.41262 | 24 ft | 4 kts | 303° |
| 2026-04-14 15:28 | -34.55879 | -58.41233 | 24 ft | 4 kts | 288° |
| 2026-04-14 15:28 | -34.55887 | -58.41202 | 24 ft | 4 kts | 291° |
| 2026-04-14 15:28 | -34.55894 | -58.41182 | 24 ft | 0 kts | 310° |
| 2026-04-14 15:32 | -34.55894 | -58.41183 | 24 ft | 1 kts | 310° |
| 2026-04-14 15:32 | -34.55869 | -58.41220 | 26 ft | 8 kts | 308° |
| 2026-04-14 15:33 | -34.55834 | -58.41285 | 27 ft | 10 kts | 300° |
| 2026-04-14 15:33 | -34.55799 | -58.41354 | 27 ft | 9 kts | 304° |
| 2026-04-14 15:33 | -34.55769 | -58.41407 | 24 ft | 6 kts | 305° |
| 2026-04-14 15:33 | -34.55747 | -58.41448 | 28 ft | 6 kts | 299° |
| 2026-04-14 15:34 | -34.55726 | -58.41496 | 27 ft | 8 kts | 297° |
| 2026-04-14 15:34 | -34.55733 | -58.41555 | 24 ft | 8 kts | 225° |
| 2026-04-14 15:34 | -34.55775 | -58.41593 | 25 ft | 7 kts | 216° |
| 2026-04-14 15:34 | -34.55777 | -58.41653 | 28 ft | 8 kts | 291° |
| 2026-04-14 15:35 | -34.55747 | -58.41729 | 28 ft | 11 kts | 296° |
| 2026-04-14 15:35 | -34.55706 | -58.41810 | 24 ft | 11 kts | 304° |
| 2026-04-14 15:35 | -34.55663 | -58.41887 | 24 ft | 11 kts | 304° |
| 2026-04-14 15:35 | -34.55621 | -58.41962 | 25 ft | 11 kts | 304° |
| 2026-04-14 15:36 | -34.55581 | -58.42034 | 26 ft | 10 kts | 304° |
| 2026-04-14 15:36 | -34.55539 | -58.42102 | 25 ft | 10 kts | 307° |
| 2026-04-14 15:36 | -34.55499 | -58.42167 | 26 ft | 10 kts | 307° |
| 2026-04-14 15:36 | -34.55472 | -58.42209 | 24 ft | 3 kts | 307° |
| 2026-04-14 15:37 | -34.55459 | -58.42231 | 28 ft | 3 kts | 307° |
| 2026-04-14 15:37 | -34.55440 | -58.42260 | 27 ft | 6 kts | 307° |
| 2026-04-14 15:37 | -34.55403 | -58.42321 | 26 ft | 11 kts | 305° |
| 2026-04-14 15:37 | -34.55380 | -58.42357 | 24 ft | 0 kts | 307° |
| 2026-04-14 15:39 | -34.55370 | -58.42388 | 28 ft | 10 kts | 286° |
| 2026-04-14 15:39 | -34.55367 | -58.42484 | 24 ft | 12 kts | 238° |
| 2026-04-14 15:39 | -34.55392 | -58.42508 | 28 ft | 3 kts | 214° |
| 2026-04-14 15:39 | -34.55409 | -58.42498 | 27 ft | 3 kts | 130° |
| 2026-04-14 15:40 | -34.55410 | -58.42495 | 25 ft | 0 kts | 126° |
| 2026-04-14 15:40 | -34.55424 | -58.42471 | 27 ft | 18 kts | 126° |
| 2026-04-14 15:41 | -34.55652 | -58.42066 | 28 ft | 97 kts | 123° |
| 2026-04-14 15:41 | -34.56166 | -58.41157 | 42 ft | 160 kts | 120° |
| 2026-04-14 15:41 | -34.56820 | -58.40002 | 706 ft | 167 kts | 120° |
| 2026-04-14 15:41 | -34.57417 | -58.38776 | 1560 ft | 174 kts | 102° |
| 2026-04-14 15:42 | -34.57329 | -58.37225 | 2029 ft | 204 kts | 68° |
| 2026-04-14 15:42 | -34.56756 | -58.35623 | 2802 ft | 212 kts | 52° |
| 2026-04-14 15:42 | -34.55583 | -58.34478 | 3256 ft | 223 kts | 26° |
| 2026-04-14 15:42 | -34.54222 | -58.33540 | 3982 ft | 236 kts | 36° |
| 2026-04-14 15:43 | -34.53074 | -58.31915 | 4244 ft | 275 kts | 59° |
| 2026-04-14 15:43 | -34.52445 | -58.29604 | 4710 ft | 296 kts | 83° |
| 2026-04-14 15:43 | -34.52602 | -58.27146 | 5939 ft | 292 kts | 102° |
| 2026-04-14 15:43 | -34.53432 | -58.24935 | 7084 ft | 288 kts | 123° |
| 2026-04-14 15:44 | -34.54857 | -58.23241 | 7995 ft | 290 kts | 147° |
| 2026-04-14 15:44 | -34.56730 | -58.22286 | 8735 ft | 298 kts | 168° |
| 2026-04-14 15:44 | -34.58809 | -58.22188 | 9489 ft | 302 kts | 188° |
| 2026-04-14 15:44 | -34.60900 | -58.22555 | 10277 ft | 306 kts | 191° |
| 2026-04-14 15:45 | -34.63073 | -58.23010 | 10575 ft | 330 kts | 191° |
| 2026-04-14 15:45 | -34.64602 | -58.23344 | 10694 ft | 346 kts | 191° |
| 2026-04-14 15:45 | -34.67044 | -58.23878 | 10983 ft | 364 kts | 191° |
| 2026-04-14 15:45 | -34.69575 | -58.24424 | 11579 ft | 372 kts | 191° |
| 2026-04-14 15:46 | -34.72138 | -58.24969 | 12313 ft | 375 kts | 191° |
| 2026-04-14 15:46 | -34.75570 | -58.25688 | 13246 ft | 381 kts | 191° |
| 2026-04-14 15:46 | -34.77340 | -58.26057 | 13672 ft | 385 kts | 191° |
| 2026-04-14 15:46 | -34.79997 | -58.26608 | 14286 ft | 389 kts | 191° |
| 2026-04-14 15:47 | -34.82681 | -58.27164 | 14944 ft | 392 kts | 191° |
| 2026-04-14 15:47 | -34.85377 | -58.27722 | 15596 ft | 395 kts | 191° |
| 2026-04-14 15:47 | -34.88094 | -58.28285 | 16211 ft | 398 kts | 191° |
| 2026-04-14 15:47 | -34.90835 | -58.28852 | 16847 ft | 401 kts | 191° |
| 2026-04-14 15:48 | -34.93605 | -58.29426 | 17503 ft | 405 kts | 191° |
| 2026-04-14 15:48 | -34.96397 | -58.30006 | 18098 ft | 409 kts | 191° |
| 2026-04-14 15:48 | -34.99213 | -58.30591 | 18620 ft | 412 kts | 191° |
| 2026-04-14 15:48 | -35.02049 | -58.31179 | 19196 ft | 413 kts | 191° |
| 2026-04-14 15:49 | -35.04887 | -58.31769 | 19772 ft | 414 kts | 191° |
| 2026-04-14 15:49 | -35.07733 | -58.32361 | 20333 ft | 416 kts | 191° |
| 2026-04-14 15:49 | -35.10556 | -58.32949 | 20867 ft | 418 kts | 191° |
| 2026-04-14 15:49 | -35.13433 | -58.33548 | 21436 ft | 420 kts | 192° |
| 2026-04-14 15:50 | -35.16322 | -58.34150 | 21935 ft | 423 kts | 192° |
| 2026-04-14 15:50 | -35.19231 | -58.34758 | 22460 ft | 425 kts | 192° |
| 2026-04-14 15:50 | -35.22152 | -58.35368 | 23009 ft | 426 kts | 192° |
| 2026-04-14 15:50 | -35.25072 | -58.35977 | 23530 ft | 428 kts | 192° |
| 2026-04-14 15:51 | -35.28016 | -58.36593 | 23943 ft | 430 kts | 192° |
| 2026-04-14 15:51 | -35.30975 | -58.37213 | 24313 ft | 433 kts | 192° |
| 2026-04-14 15:51 | -35.33963 | -58.37839 | 24691 ft | 436 kts | 192° |
| 2026-04-14 15:51 | -35.36964 | -58.38468 | 25071 ft | 439 kts | 193° |
| 2026-04-14 15:52 | -35.39983 | -58.39101 | 25446 ft | 442 kts | 193° |
| 2026-04-14 15:52 | -35.43024 | -58.39740 | 25817 ft | 444 kts | 193° |
| 2026-04-14 15:52 | -35.46084 | -58.40382 | 26191 ft | 447 kts | 193° |
| 2026-04-14 15:52 | -35.49155 | -58.41028 | 26552 ft | 449 kts | 194° |
| 2026-04-14 15:53 | -35.52240 | -58.41677 | 26895 ft | 452 kts | 194° |
| 2026-04-14 15:53 | -35.55347 | -58.42331 | 27241 ft | 454 kts | 194° |
| 2026-04-14 15:53 | -35.58471 | -58.42989 | 27569 ft | 457 kts | 194° |
| 2026-04-14 15:53 | -35.61616 | -58.43652 | 27913 ft | 459 kts | 195° |
| 2026-04-14 15:54 | -35.67946 | -58.44988 | 28559 ft | 463 kts | 195° |
| 2026-04-14 15:54 | -35.71129 | -58.45661 | 28890 ft | 465 kts | 195° |
| 2026-04-14 15:54 | -35.74228 | -58.46568 | 29177 ft | 461 kts | 204° |
| 2026-04-14 15:55 | -35.77189 | -58.48035 | 29487 ft | 456 kts | 213° |
| 2026-04-14 15:55 | -35.79909 | -58.49998 | 29782 ft | 453 kts | 218° |
| 2026-04-14 15:55 | -35.82569 | -58.52074 | 30105 ft | 454 kts | 219° |
| 2026-04-14 15:55 | -35.85228 | -58.54170 | 30444 ft | 453 kts | 219° |
| 2026-04-14 15:56 | -35.87892 | -58.56264 | 30759 ft | 454 kts | 219° |
| 2026-04-14 15:56 | -35.90562 | -58.58351 | 31101 ft | 453 kts | 219° |
| 2026-04-14 15:56 | -35.93229 | -58.60422 | 31446 ft | 452 kts | 220° |
| 2026-04-14 15:56 | -35.95893 | -58.62484 | 31779 ft | 452 kts | 220° |
| 2026-04-14 15:57 | -35.98523 | -58.64515 | 32082 ft | 452 kts | 220° |
| 2026-04-14 15:57 | -36.01218 | -58.66597 | 32412 ft | 451 kts | 220° |
| 2026-04-14 15:57 | -36.03883 | -58.68655 | 32750 ft | 450 kts | 221° |
| 2026-04-14 15:57 | -36.06536 | -58.70705 | 33068 ft | 450 kts | 221° |
| 2026-04-14 15:58 | -36.09189 | -58.72757 | 33379 ft | 450 kts | 222° |
| 2026-04-14 15:58 | -36.11841 | -58.74812 | 33720 ft | 449 kts | 223° |
| 2026-04-14 15:58 | -36.14476 | -58.76852 | 34118 ft | 446 kts | 223° |
| 2026-04-14 15:58 | -36.17096 | -58.78882 | 34422 ft | 444 kts | 223° |
| 2026-04-14 15:59 | -36.19719 | -58.80920 | 34633 ft | 445 kts | 223° |
| 2026-04-14 15:59 | -36.22337 | -58.82957 | 34847 ft | 446 kts | 223° |
| 2026-04-14 15:59 | -36.24961 | -58.85000 | 35097 ft | 445 kts | 224° |
| 2026-04-14 15:59 | -36.27577 | -58.87036 | 35372 ft | 444 kts | 224° |
| 2026-04-14 16:00 | -36.30189 | -58.89070 | 35615 ft | 443 kts | 224° |
| 2026-04-14 16:00 | -36.32795 | -58.91102 | 35837 ft | 443 kts | 224° |
| 2026-04-14 16:00 | -36.35407 | -58.93142 | 36018 ft | 444 kts | 224° |
| 2026-04-14 16:01 | -36.40666 | -58.97257 | 36020 ft | 447 kts | 224° |
| 2026-04-14 16:01 | -36.45902 | -59.01345 | 36003 ft | 440 kts | 224° |
| 2026-04-14 16:02 | -36.51032 | -59.05361 | 36020 ft | 439 kts | 225° |
| 2026-04-14 16:02 | -36.56210 | -59.09433 | 36014 ft | 440 kts | 225° |
| 2026-04-14 16:03 | -36.61384 | -59.13505 | 36023 ft | 441 kts | 225° |
| 2026-04-14 16:03 | -36.66577 | -59.17597 | 36034 ft | 442 kts | 224° |
| 2026-04-14 16:04 | -36.71782 | -59.21702 | 36019 ft | 443 kts | 224° |
| 2026-04-14 16:04 | -36.76991 | -59.25817 | 36014 ft | 444 kts | 224° |
| 2026-04-14 16:05 | -36.82212 | -59.29949 | 36017 ft | 444 kts | 224° |
| 2026-04-14 16:05 | -36.87442 | -59.34095 | 36023 ft | 445 kts | 224° |
| 2026-04-14 16:06 | -36.92638 | -59.38222 | 36019 ft | 446 kts | 224° |
| 2026-04-14 16:06 | -36.97869 | -59.42382 | 36013 ft | 446 kts | 224° |
| 2026-04-14 16:07 | -37.03118 | -59.46563 | 36007 ft | 447 kts | 224° |
| 2026-04-14 16:07 | -37.08360 | -59.50747 | 36009 ft | 447 kts | 224° |
| 2026-04-14 16:08 | -37.13608 | -59.54942 | 36006 ft | 447 kts | 224° |
| 2026-04-14 16:08 | -37.18844 | -59.59143 | 36013 ft | 446 kts | 225° |
| 2026-04-14 16:09 | -37.24005 | -59.63472 | 36018 ft | 446 kts | 225° |
| 2026-04-14 16:09 | -37.29135 | -59.67852 | 36016 ft | 446 kts | 225° |
| 2026-04-14 16:10 | -37.34277 | -59.72235 | 36008 ft | 447 kts | 225° |
| 2026-04-14 16:10 | -37.39442 | -59.76627 | 36005 ft | 448 kts | 225° |
| 2026-04-14 16:11 | -37.44614 | -59.81026 | 36006 ft | 448 kts | 225° |
| 2026-04-14 16:11 | -37.49782 | -59.85430 | 36007 ft | 449 kts | 224° |
| 2026-04-14 16:12 | -37.54919 | -59.89815 | 36011 ft | 450 kts | 223° |
| 2026-04-14 16:12 | -37.60104 | -59.94249 | 36005 ft | 451 kts | 223° |
| 2026-04-14 16:13 | -37.65317 | -59.98713 | 35992 ft | 452 kts | 223° |
| 2026-04-14 16:13 | -37.70519 | -60.03177 | 35990 ft | 453 kts | 223° |
| 2026-04-14 16:14 | -37.75743 | -60.07666 | 36001 ft | 454 kts | 222° |
| 2026-04-14 16:14 | -37.80969 | -60.12165 | 35991 ft | 455 kts | 222° |
| 2026-04-14 16:15 | -37.86170 | -60.16652 | 35983 ft | 456 kts | 222° |
| 2026-04-14 16:15 | -37.91409 | -60.21179 | 35983 ft | 456 kts | 221° |
| 2026-04-14 16:16 | -37.96649 | -60.25714 | 35977 ft | 456 kts | 221° |
| 2026-04-14 16:16 | -38.01890 | -60.30258 | 35979 ft | 456 kts | 220° |
| 2026-04-14 16:17 | -38.07128 | -60.34808 | 35973 ft | 456 kts | 220° |
| 2026-04-14 16:17 | -38.12354 | -60.39355 | 35962 ft | 455 kts | 220° |
| 2026-04-14 16:18 | -38.17588 | -60.43898 | 35963 ft | 455 kts | 220° |
| 2026-04-14 16:18 | -38.22855 | -60.48358 | 35966 ft | 455 kts | 219° |
| 2026-04-14 16:19 | -38.28120 | -60.52800 | 35950 ft | 454 kts | 219° |
| 2026-04-14 16:19 | -38.33385 | -60.57265 | 35944 ft | 453 kts | 219° |
| 2026-04-14 16:20 | -38.38596 | -60.61700 | 35947 ft | 452 kts | 219° |
| 2026-04-14 16:20 | -38.43823 | -60.66160 | 35936 ft | 452 kts | 219° |
| 2026-04-14 16:21 | -38.49048 | -60.70626 | 35942 ft | 451 kts | 219° |
| 2026-04-14 16:21 | -38.54262 | -60.75090 | 35936 ft | 451 kts | 219° |
| 2026-04-14 16:22 | -38.59479 | -60.79566 | 35939 ft | 451 kts | 218° |
| 2026-04-14 16:22 | -38.64693 | -60.84045 | 35928 ft | 451 kts | 218° |
| 2026-04-14 16:23 | -38.69902 | -60.88528 | 35924 ft | 451 kts | 218° |
| 2026-04-14 16:23 | -38.75110 | -60.93018 | 35918 ft | 451 kts | 218° |
| 2026-04-14 16:24 | -38.80312 | -60.97512 | 35915 ft | 451 kts | 218° |
| 2026-04-14 16:24 | -38.85522 | -61.02021 | 35914 ft | 451 kts | 218° |
| 2026-04-14 16:25 | -38.90728 | -61.06534 | 35918 ft | 452 kts | 218° |
| 2026-04-14 16:25 | -38.95932 | -61.11053 | 35899 ft | 452 kts | 218° |
| 2026-04-14 16:26 | -39.01139 | -61.15584 | 35899 ft | 451 kts | 218° |
| 2026-04-14 16:26 | -39.06300 | -61.20081 | 35895 ft | 451 kts | 218° |
| 2026-04-14 16:27 | -39.11494 | -61.24616 | 35895 ft | 450 kts | 218° |
| 2026-04-14 16:27 | -39.16672 | -61.29146 | 35884 ft | 450 kts | 218° |
| 2026-04-14 16:28 | -39.21850 | -61.33684 | 35889 ft | 450 kts | 218° |
| 2026-04-14 16:28 | -39.27019 | -61.38223 | 35881 ft | 449 kts | 217° |
| 2026-04-14 16:29 | -39.32185 | -61.42766 | 35888 ft | 448 kts | 217° |
| 2026-04-14 16:29 | -39.37337 | -61.47306 | 35867 ft | 448 kts | 217° |
| 2026-04-14 16:30 | -39.41612 | -61.51079 | 35878 ft | 448 kts | 217° |
| 2026-04-14 16:30 | -39.46756 | -61.55627 | 35887 ft | 447 kts | 217° |
| 2026-04-14 16:31 | -39.51894 | -61.60177 | 35881 ft | 448 kts | 217° |
| 2026-04-14 16:31 | -39.57032 | -61.64737 | 35865 ft | 448 kts | 217° |
| 2026-04-14 16:32 | -39.62177 | -61.69310 | 35867 ft | 448 kts | 218° |
| 2026-04-14 16:32 | -39.67318 | -61.73889 | 35873 ft | 449 kts | 218° |
| 2026-04-14 16:33 | -39.72471 | -61.78488 | 35866 ft | 449 kts | 218° |
| 2026-04-14 16:33 | -39.77621 | -61.83091 | 35869 ft | 449 kts | 218° |
| 2026-04-14 16:34 | -39.82771 | -61.87704 | 35871 ft | 450 kts | 218° |
| 2026-04-14 16:34 | -39.87874 | -61.92349 | 35877 ft | 449 kts | 220° |
| 2026-04-14 16:35 | -39.92727 | -61.97440 | 35861 ft | 447 kts | 224° |
| 2026-04-14 16:35 | -39.97496 | -62.02650 | 35856 ft | 447 kts | 224° |
| 2026-04-14 16:36 | -40.02262 | -62.07827 | 35848 ft | 446 kts | 224° |
| 2026-04-14 16:36 | -40.07039 | -62.12980 | 35849 ft | 445 kts | 224° |
| 2026-04-14 16:37 | -40.11812 | -62.18122 | 35841 ft | 444 kts | 224° |
| 2026-04-14 16:37 | -40.16571 | -62.23256 | 35865 ft | 443 kts | 224° |
| 2026-04-14 16:38 | -40.21323 | -62.28393 | 35848 ft | 443 kts | 224° |
| 2026-04-14 16:38 | -40.26071 | -62.33539 | 35841 ft | 443 kts | 224° |
| 2026-04-14 16:39 | -40.30823 | -62.38697 | 35837 ft | 443 kts | 224° |
| 2026-04-14 16:39 | -40.35538 | -62.43825 | 35834 ft | 443 kts | 224° |
| 2026-04-14 16:40 | -40.40283 | -62.48995 | 35833 ft | 444 kts | 224° |
| 2026-04-14 16:40 | -40.45038 | -62.54185 | 35844 ft | 445 kts | 225° |
| 2026-04-14 16:41 | -40.49793 | -62.59387 | 35836 ft | 445 kts | 225° |
| 2026-04-14 16:41 | -40.54559 | -62.64610 | 35823 ft | 446 kts | 225° |
| 2026-04-14 16:42 | -40.59327 | -62.69845 | 35822 ft | 447 kts | 225° |
| 2026-04-14 16:42 | -40.64095 | -62.75090 | 35820 ft | 447 kts | 225° |
| 2026-04-14 16:43 | -40.68864 | -62.80346 | 35815 ft | 447 kts | 225° |
| 2026-04-14 16:43 | -40.73631 | -62.85611 | 35822 ft | 447 kts | 226° |
| 2026-04-14 16:44 | -40.78399 | -62.90887 | 35802 ft | 447 kts | 226° |
| 2026-04-14 16:44 | -40.83121 | -62.96121 | 35803 ft | 445 kts | 226° |
| 2026-04-14 16:45 | -40.90413 | -63.03763 | 35806 ft | 448 kts | 221° |
| 2026-04-14 16:45 | -40.95563 | -63.08416 | 35809 ft | 448 kts | 220° |
| 2026-04-14 16:46 | -41.00712 | -63.13046 | 35824 ft | 447 kts | 221° |
| 2026-04-14 16:46 | -41.05827 | -63.17724 | 35811 ft | 446 kts | 221° |
| 2026-04-14 16:47 | -41.10928 | -63.22441 | 35807 ft | 446 kts | 222° |
| 2026-04-14 16:47 | -41.16018 | -63.27167 | 35809 ft | 446 kts | 222° |
| 2026-04-14 16:48 | -41.21105 | -63.31900 | 35821 ft | 447 kts | 222° |
| 2026-04-14 16:48 | -41.26166 | -63.36615 | 35807 ft | 447 kts | 222° |
| 2026-04-14 16:49 | -41.31263 | -63.41372 | 35809 ft | 448 kts | 222° |
| 2026-04-14 16:49 | -41.36375 | -63.46151 | 35800 ft | 450 kts | 223° |
| 2026-04-14 16:50 | -41.41499 | -63.50953 | 35811 ft | 451 kts | 223° |
| 2026-04-14 16:50 | -41.46639 | -63.55779 | 35817 ft | 453 kts | 223° |
| 2026-04-14 16:51 | -41.51797 | -63.60632 | 35808 ft | 454 kts | 223° |
| 2026-04-14 16:51 | -41.56974 | -63.65511 | 35796 ft | 456 kts | 223° |
| 2026-04-14 16:52 | -41.62154 | -63.70402 | 35792 ft | 456 kts | 223° |
| 2026-04-14 16:52 | -41.67337 | -63.75305 | 35818 ft | 457 kts | 224° |
| 2026-04-14 16:53 | -41.72542 | -63.80240 | 35805 ft | 458 kts | 224° |
| 2026-04-14 16:53 | -41.77741 | -63.85179 | 35800 ft | 458 kts | 224° |
| 2026-04-14 16:54 | -41.82897 | -63.90088 | 35785 ft | 457 kts | 224° |
| 2026-04-14 16:54 | -41.88090 | -63.95041 | 35782 ft | 457 kts | 224° |
| 2026-04-14 16:55 | -41.93264 | -63.99986 | 35780 ft | 456 kts | 224° |
| 2026-04-14 16:55 | -41.98432 | -64.04937 | 35817 ft | 456 kts | 224° |
| 2026-04-14 16:56 | -42.03605 | -64.09903 | 35791 ft | 456 kts | 225° |
| 2026-04-14 16:56 | -42.08779 | -64.14880 | 35778 ft | 457 kts | 225° |
| 2026-04-14 16:57 | -42.13949 | -64.19863 | 35777 ft | 457 kts | 225° |
| 2026-04-14 16:57 | -42.19127 | -64.24863 | 35794 ft | 457 kts | 225° |
| 2026-04-14 16:58 | -42.24273 | -64.29843 | 35779 ft | 458 kts | 225° |
| 2026-04-14 16:58 | -42.29453 | -64.34866 | 35770 ft | 458 kts | 225° |
| 2026-04-14 16:59 | -42.34625 | -64.39890 | 35770 ft | 458 kts | 225° |
| 2026-04-14 16:59 | -42.39797 | -64.44926 | 35776 ft | 458 kts | 225° |
| 2026-04-14 17:00 | -42.44978 | -64.49981 | 35771 ft | 458 kts | 225° |
| 2026-04-14 17:00 | -42.50155 | -64.55044 | 35765 ft | 459 kts | 226° |
| 2026-04-14 17:01 | -42.55323 | -64.60109 | 35755 ft | 458 kts | 226° |
| 2026-04-14 17:01 | -42.60497 | -64.65189 | 35764 ft | 459 kts | 226° |
| 2026-04-14 17:02 | -42.65630 | -64.70239 | 35755 ft | 458 kts | 226° |
| 2026-04-14 17:02 | -42.70795 | -64.75330 | 35751 ft | 458 kts | 226° |
| 2026-04-14 17:03 | -42.75949 | -64.80423 | 35749 ft | 458 kts | 226° |
| 2026-04-14 17:03 | -42.81096 | -64.85520 | 35746 ft | 457 kts | 226° |
| 2026-04-14 17:04 | -42.86241 | -64.90625 | 35750 ft | 457 kts | 226° |
| 2026-04-14 17:04 | -42.91386 | -64.95741 | 35736 ft | 457 kts | 226° |
| 2026-04-14 17:05 | -42.96532 | -65.00869 | 35748 ft | 457 kts | 227° |
| 2026-04-14 17:05 | -43.01681 | -65.06012 | 35727 ft | 459 kts | 227° |
| 2026-04-14 17:06 | -43.06833 | -65.11168 | 35718 ft | 458 kts | 227° |
| 2026-04-14 17:06 | -43.11952 | -65.16301 | 35724 ft | 458 kts | 227° |
| 2026-04-14 17:07 | -43.17089 | -65.21464 | 35720 ft | 458 kts | 227° |
| 2026-04-14 17:07 | -43.22342 | -65.26504 | 35736 ft | 466 kts | 223° |
| 2026-04-14 17:08 | -43.27995 | -65.30960 | 35726 ft | 470 kts | 220° |
| 2026-04-14 17:08 | -43.33717 | -65.35328 | 35726 ft | 469 kts | 220° |
| 2026-04-14 17:09 | -43.39389 | -65.39758 | 35721 ft | 468 kts | 221° |
| 2026-04-14 17:09 | -43.45039 | -65.44233 | 35736 ft | 468 kts | 222° |
| 2026-04-14 17:10 | -43.50671 | -65.48714 | 35737 ft | 468 kts | 222° |
| 2026-04-14 17:10 | -43.56308 | -65.53204 | 35734 ft | 467 kts | 222° |
| 2026-04-14 17:11 | -43.61938 | -65.57696 | 35732 ft | 467 kts | 222° |
| 2026-04-14 17:11 | -43.67520 | -65.62161 | 35751 ft | 468 kts | 223° |
| 2026-04-14 17:12 | -43.73153 | -65.66675 | 35737 ft | 468 kts | 223° |
| 2026-04-14 17:12 | -43.78778 | -65.71192 | 35737 ft | 467 kts | 223° |
| 2026-04-14 17:13 | -43.84396 | -65.75713 | 35727 ft | 467 kts | 223° |
| 2026-04-14 17:13 | -43.90032 | -65.80265 | 35252 ft | 474 kts | 223° |
| 2026-04-14 17:14 | -43.92879 | -65.82567 | 34670 ft | 473 kts | 223° |
| 2026-04-14 17:14 | -43.95725 | -65.84864 | 34084 ft | 474 kts | 224° |
| 2026-04-14 17:14 | -43.98575 | -65.87170 | 33525 ft | 473 kts | 224° |
| 2026-04-14 17:14 | -44.00452 | -65.88682 | 33166 ft | 472 kts | 223° |
| 2026-04-14 17:15 | -44.03338 | -65.90874 | 32636 ft | 472 kts | 221° |
| 2026-04-14 17:15 | -44.06248 | -65.92969 | 32174 ft | 469 kts | 220° |
| 2026-04-14 17:15 | -44.09147 | -65.95014 | 31721 ft | 464 kts | 220° |
| 2026-04-14 17:15 | -44.12010 | -65.97035 | 31320 ft | 460 kts | 219° |
| 2026-04-14 17:16 | -44.14847 | -65.99053 | 30868 ft | 455 kts | 220° |
| 2026-04-14 17:16 | -44.17649 | -66.01065 | 30432 ft | 451 kts | 220° |
| 2026-04-14 17:16 | -44.20421 | -66.03071 | 30003 ft | 447 kts | 220° |
| 2026-04-14 17:16 | -44.23172 | -66.05070 | 29531 ft | 443 kts | 220° |
| 2026-04-14 17:17 | -44.25849 | -66.07022 | 29046 ft | 438 kts | 219° |
| 2026-04-14 17:17 | -44.28531 | -66.08978 | 28604 ft | 432 kts | 220° |
| 2026-04-14 17:17 | -44.31187 | -66.10918 | 28147 ft | 428 kts | 220° |
| 2026-04-14 17:17 | -44.33804 | -66.12832 | 27724 ft | 423 kts | 220° |
| 2026-04-14 17:18 | -44.36398 | -66.14731 | 27279 ft | 418 kts | 220° |
| 2026-04-14 17:18 | -44.38967 | -66.16614 | 26884 ft | 415 kts | 220° |
| 2026-04-14 17:18 | -44.41555 | -66.18397 | 26443 ft | 416 kts | 216° |
| 2026-04-14 17:18 | -44.44168 | -66.20098 | 26007 ft | 411 kts | 218° |
| 2026-04-14 17:19 | -44.46687 | -66.21917 | 25573 ft | 404 kts | 220° |
| 2026-04-14 17:19 | -44.49141 | -66.23810 | 25146 ft | 400 kts | 221° |
| 2026-04-14 17:19 | -44.51562 | -66.25698 | 24727 ft | 397 kts | 221° |
| 2026-04-14 17:19 | -44.53977 | -66.27559 | 24313 ft | 395 kts | 220° |
| 2026-04-14 17:20 | -44.56392 | -66.29394 | 23882 ft | 394 kts | 220° |
| 2026-04-14 17:20 | -44.58800 | -66.31201 | 23441 ft | 392 kts | 220° |
| 2026-04-14 17:20 | -44.61201 | -66.32989 | 22986 ft | 390 kts | 219° |
| 2026-04-14 17:20 | -44.63593 | -66.34762 | 22575 ft | 386 kts | 220° |
| 2026-04-14 17:21 | -44.65930 | -66.36492 | 22120 ft | 383 kts | 220° |
| 2026-04-14 17:21 | -44.68285 | -66.38235 | 21703 ft | 380 kts | 220° |
| 2026-04-14 17:21 | -44.70612 | -66.39959 | 21271 ft | 376 kts | 220° |
| 2026-04-14 17:21 | -44.72916 | -66.41667 | 20860 ft | 372 kts | 220° |
| 2026-04-14 17:22 | -44.75194 | -66.43359 | 20455 ft | 369 kts | 220° |
| 2026-04-14 17:22 | -44.77453 | -66.45038 | 20055 ft | 365 kts | 220° |
| 2026-04-14 17:22 | -44.79694 | -66.46708 | 19652 ft | 362 kts | 220° |
| 2026-04-14 17:22 | -44.81910 | -66.48359 | 19253 ft | 359 kts | 220° |
| 2026-04-14 17:23 | -44.84115 | -66.50005 | 18855 ft | 357 kts | 220° |
| 2026-04-14 17:23 | -44.86302 | -66.51638 | 18452 ft | 354 kts | 220° |
| 2026-04-14 17:23 | -44.88474 | -66.53261 | 18087 ft | 352 kts | 220° |
| 2026-04-14 17:23 | -44.90633 | -66.54877 | 17619 ft | 351 kts | 219° |
| 2026-04-14 17:24 | -44.92780 | -66.56485 | 17218 ft | 348 kts | 219° |
| 2026-04-14 17:24 | -44.94911 | -66.58079 | 16792 ft | 345 kts | 219° |
| 2026-04-14 17:24 | -44.97019 | -66.59659 | 16385 ft | 342 kts | 218° |
| 2026-04-14 17:24 | -44.99106 | -66.61224 | 15994 ft | 339 kts | 218° |
| 2026-04-14 17:25 | -45.01156 | -66.62763 | 15610 ft | 336 kts | 218° |
| 2026-04-14 17:25 | -45.03209 | -66.64307 | 15233 ft | 333 kts | 218° |
| 2026-04-14 17:25 | -45.05250 | -66.65841 | 14845 ft | 331 kts | 218° |
| 2026-04-14 17:25 | -45.07277 | -66.67367 | 14465 ft | 329 kts | 218° |
| 2026-04-14 17:26 | -45.09290 | -66.68884 | 14086 ft | 327 kts | 217° |
| 2026-04-14 17:26 | -45.11293 | -66.70396 | 13701 ft | 325 kts | 217° |
| 2026-04-14 17:26 | -45.13285 | -66.71900 | 13278 ft | 324 kts | 217° |
| 2026-04-14 17:26 | -45.15271 | -66.73401 | 12877 ft | 323 kts | 217° |
| 2026-04-14 17:27 | -45.17242 | -66.74891 | 12503 ft | 320 kts | 217° |
| 2026-04-14 17:27 | -45.19187 | -66.76359 | 12114 ft | 312 kts | 217° |
| 2026-04-14 17:27 | -45.21073 | -66.77779 | 11730 ft | 301 kts | 217° |
| 2026-04-14 17:27 | -45.22891 | -66.79150 | 11376 ft | 291 kts | 217° |
| 2026-04-14 17:28 | -45.24648 | -66.80478 | 11034 ft | 281 kts | 217° |
| 2026-04-14 17:28 | -45.26346 | -66.81765 | 10708 ft | 272 kts | 217° |
| 2026-04-14 17:28 | -45.27972 | -66.82999 | 10394 ft | 264 kts | 217° |
| 2026-04-14 17:28 | -45.29588 | -66.84227 | 10131 ft | 254 kts | 218° |
| 2026-04-14 17:29 | -45.31082 | -66.85358 | 10020 ft | 240 kts | 218° |
| 2026-04-14 17:29 | -45.32513 | -66.86442 | 9905 ft | 226 kts | 219° |
| 2026-04-14 17:29 | -45.33867 | -66.87472 | 9803 ft | 218 kts | 219° |
| 2026-04-14 17:29 | -45.35193 | -66.88488 | 9742 ft | 217 kts | 219° |
| 2026-04-14 17:30 | -45.36547 | -66.89533 | 9522 ft | 225 kts | 219° |
| 2026-04-14 17:30 | -45.37924 | -66.90590 | 9260 ft | 224 kts | 218° |
| 2026-04-14 17:30 | -45.39284 | -66.91626 | 9010 ft | 219 kts | 218° |
| 2026-04-14 17:30 | -45.40611 | -66.92636 | 8786 ft | 213 kts | 219° |
| 2026-04-14 17:31 | -45.41906 | -66.93625 | 8563 ft | 211 kts | 219° |
| 2026-04-14 17:31 | -45.43207 | -66.94620 | 8327 ft | 212 kts | 217° |
| 2026-04-14 17:31 | -45.44508 | -66.95617 | 8103 ft | 212 kts | 217° |
| 2026-04-14 17:31 | -45.45809 | -66.96615 | 7867 ft | 212 kts | 217° |
| 2026-04-14 17:32 | -45.47100 | -66.97603 | 7627 ft | 210 kts | 217° |
| 2026-04-14 17:32 | -45.48381 | -66.98583 | 7406 ft | 208 kts | 217° |
| 2026-04-14 17:32 | -45.49651 | -66.99556 | 7171 ft | 206 kts | 217° |
| 2026-04-14 17:32 | -45.50892 | -67.00507 | 6955 ft | 204 kts | 217° |
| 2026-04-14 17:33 | -45.52135 | -67.01459 | 6737 ft | 202 kts | 217° |
| 2026-04-14 17:33 | -45.53367 | -67.02404 | 6527 ft | 199 kts | 217° |
| 2026-04-14 17:33 | -45.54574 | -67.03330 | 6356 ft | 195 kts | 217° |
| 2026-04-14 17:34 | -45.56950 | -67.05156 | 5917 ft | 193 kts | 217° |
| 2026-04-14 17:34 | -45.58128 | -67.06063 | 5690 ft | 192 kts | 217° |
| 2026-04-14 17:34 | -45.59282 | -67.06947 | 5490 ft | 182 kts | 217° |
| 2026-04-14 17:34 | -45.60365 | -67.07776 | 5288 ft | 171 kts | 217° |
| 2026-04-14 17:35 | -45.61405 | -67.08578 | 5236 ft | 171 kts | 217° |
| 2026-04-14 17:35 | -45.62458 | -67.09392 | 5155 ft | 172 kts | 217° |
| 2026-04-14 17:35 | -45.63514 | -67.10207 | 5080 ft | 172 kts | 217° |
| 2026-04-14 17:35 | -45.64569 | -67.11021 | 5006 ft | 172 kts | 217° |
| 2026-04-14 17:36 | -45.65627 | -67.11837 | 4935 ft | 172 kts | 217° |
| 2026-04-14 17:36 | -45.66672 | -67.12631 | 4927 ft | 168 kts | 219° |
| 2026-04-14 17:36 | -45.67699 | -67.13431 | 4710 ft | 172 kts | 217° |
| 2026-04-14 17:36 | -45.68771 | -67.14263 | 4502 ft | 173 kts | 217° |
| 2026-04-14 17:37 | -45.69801 | -67.15057 | 4288 ft | 168 kts | 217° |
| 2026-04-14 17:37 | -45.70815 | -67.15839 | 4057 ft | 163 kts | 217° |
| 2026-04-14 17:37 | -45.71818 | -67.16613 | 3857 ft | 161 kts | 217° |
| 2026-04-14 17:37 | -45.72786 | -67.17363 | 3669 ft | 160 kts | 217° |
| 2026-04-14 17:38 | -45.73760 | -67.18117 | 3489 ft | 159 kts | 217° |
| 2026-04-14 17:38 | -45.74638 | -67.19007 | 3268 ft | 151 kts | 241° |
| 2026-04-14 17:38 | -45.74994 | -67.20339 | 3299 ft | 143 kts | 257° |
| 2026-04-14 17:38 | -45.75202 | -67.21696 | 3242 ft | 136 kts | 256° |
| 2026-04-14 17:39 | -45.75419 | -67.22942 | 3133 ft | 124 kts | 257° |
| 2026-04-14 17:39 | -45.75598 | -67.24114 | 2991 ft | 116 kts | 258° |
| 2026-04-14 17:39 | -45.75754 | -67.25228 | 2882 ft | 114 kts | 258° |
| 2026-04-14 17:39 | -45.75905 | -67.26359 | 2703 ft | 117 kts | 258° |
| 2026-04-14 17:40 | -45.76057 | -67.27517 | 2531 ft | 118 kts | 258° |
| 2026-04-14 17:40 | -45.76206 | -67.28672 | 2372 ft | 117 kts | 259° |
| 2026-04-14 17:40 | -45.76354 | -67.29813 | 2203 ft | 116 kts | 259° |
| 2026-04-14 17:40 | -45.76500 | -67.30946 | 2056 ft | 115 kts | 260° |
| 2026-04-14 17:41 | -45.76645 | -67.32073 | 1902 ft | 118 kts | 259° |
| 2026-04-14 17:41 | -45.76795 | -67.33234 | 1736 ft | 118 kts | 259° |
| 2026-04-14 17:41 | -45.76944 | -67.34388 | 1574 ft | 117 kts | 259° |
| 2026-04-14 17:41 | -45.77091 | -67.35528 | 1421 ft | 116 kts | 259° |
| 2026-04-14 17:42 | -45.77238 | -67.36665 | 1268 ft | 116 kts | 259° |
| 2026-04-14 17:42 | -45.77386 | -67.37805 | 1119 ft | 117 kts | 260° |
| 2026-04-14 17:42 | -45.77533 | -67.38933 | 959 ft | 112 kts | 258° |
| 2026-04-14 17:42 | -45.77687 | -67.40050 | 843 ft | 117 kts | 259° |
| 2026-04-14 17:43 | -45.77834 | -67.41246 | 722 ft | 124 kts | 260° |
| 2026-04-14 17:43 | -45.77992 | -67.42492 | 565 ft | 128 kts | 258° |
| 2026-04-14 17:43 | -45.78153 | -67.43724 | 364 ft | 120 kts | 257° |
| 2026-04-14 17:43 | -45.78299 | -67.44852 | 218 ft | 112 kts | 257° |
| 2026-04-14 17:44 | -45.78430 | -67.45830 | 194 ft | 84 kts | 259° |
| 2026-04-14 17:44 | -45.78508 | -67.46445 | 207 ft | 45 kts | 259° |
| 2026-04-14 17:44 | -45.78561 | -67.46838 | 209 ft | 35 kts | 259° |
| 2026-04-14 17:44 | -45.78601 | -67.47149 | 193 ft | 30 kts | 259° |
| 2026-04-14 17:45 | -45.78637 | -67.47315 | 196 ft | 11 kts | 210° |
| 2026-04-14 17:45 | -45.78707 | -67.47299 | 198 ft | 10 kts | 159° |
| 2026-04-14 17:45 | -45.78775 | -67.47264 | 195 ft | 10 kts | 161° |
| 2026-04-14 17:45 | -45.78839 | -67.47232 | 205 ft | 10 kts | 161° |
| 2026-04-14 17:46 | -45.78902 | -67.47200 | 195 ft | 9 kts | 150° |
| 2026-04-14 17:46 | -45.78920 | -67.47116 | 201 ft | 9 kts | 87° |
| 2026-04-14 17:46 | -45.78918 | -67.47024 | 203 ft | 9 kts | 87° |
| 2026-04-14 17:46 | -45.78915 | -67.46935 | 198 ft | 9 kts | 88° |
| 2026-04-14 17:47 | -45.78914 | -67.46869 | 195 ft | 3 kts | 88° |
| 2026-04-14 17:47 | -45.78914 | -67.46845 | 200 ft | 0 kts | 102° |
| 2026-04-14 17:47 | -45.78920 | -67.46845 | 195 ft | 2 kts | 189° |
| 2026-04-14 17:47 | -45.78936 | -67.46866 | 201 ft | 3 kts | 226° |
| 2026-04-14 17:48 | -45.78946 | -67.46882 | 202 ft | 1 kts | 226° |
| 2026-04-14 17:48 | -45.78949 | -67.46885 | 195 ft | 0 kts | 226° |